Terminal Aerodrome Forecast
Issued by NWS Mt. Holly, NJ

Current Version | Previous Version | Text Only | Print | Product List | Glossary On
Versions: 1 2 3 4 5 6 7 8 9 10 11 12 13 14 15 16 17 18 19 20
000
FTUS41 KPHI 050340 AAA
TAFTTN
TAF AMD
KTTN 050340Z 0504/0524 08006KT P6SM BKN015
     FM051300 08010KT P6SM SCT025 SCT050
     FM051900 11008KT P6SM SCT050=

USA.gov is the U.S. government's official web portal to all federal, state and local government web resources and services.